Capitol Logistics 245


KMIA
Miami International Airport
Miami, Florida, US
MKJP
Norman Manley International Airport
Kingston, , JM

Route Details

Aircraft Information
Primary: Boeing 767-300BDSF
Backup: Not Available
Route Data
Distance: 518nm
Sched. Duration: 1h 19m
Avg. Duration: 1h 36m (+16m)
Times Flown: 16
Recm'd Route: EONNS2 EONNS A509 URSUS UA301 MLY
Planned Altitude: 36,000ft
Origin Wx: KMIA 210914Z 30004KT 8SM BKN006 BKN012 23/21 A3001 RMK AO2 T02280206 $
Dest. Wx: MKJP 210900Z 01007KT 9999 FEW022 26/20 Q1015
Notes:

Financial History
Total Freight: 941,560lbs
Average Load: 58,848lbs/flt
Fuel Used: 206,438lbs
Avg. Fuel Used: 12,902lbs/flt
Fuel Expense: $253,919
Avg. Fuel Expense: $15,870
Avg. Fuel Cost: $1.23/lbs
Total Gross Income: $1,286,809
Pilot Pay: $2,094
Total Expenses: $138,777
Total Revenue: $889,585
Average Revenue: $80,425.59